Time;durP1;ratioP1;P1;durP2;ratioP2;P2;SDS_P1;SDS_P2;PMS_P1;PMS_P2;Temp;Humidity;BMP_temperature;BMP_pressure;BME280_temperature;BME280_humidity;BME280_pressure;Samples;Min_cycle;Max_cycle;Signal;HPM_P1;HPM_P2
2023/06/10 00:01:36;;;;;;;7.80;5.93;;;22.00;99.90;;;;;;5067212;28;20810;-58
2023/06/10 00:04:02;;;;;;;6.72;5.63;;;22.10;99.90;;;;;;5064743;28;20055;-59
2023/06/10 00:06:28;;;;;;;9.20;6.43;;;22.10;99.90;;;;;;5067907;28;20438;-58
2023/06/10 00:08:54;;;;;;;10.52;5.65;;;22.00;99.90;;;;;;5056907;28;20071;-58
2023/06/10 00:11:21;;;;;;;6.88;5.88;;;22.10;99.90;;;;;;5056328;28;20040;-58
2023/06/10 00:13:47;;;;;;;9.18;6.20;;;22.00;99.90;;;;;;5068284;28;20021;-58
2023/06/10 00:16:12;;;;;;;9.88;5.93;;;21.90;99.90;;;;;;5059450;28;20155;-58
2023/06/10 00:18:38;;;;;;;8.32;5.95;;;21.90;99.90;;;;;;5062945;28;20056;-58
2023/06/10 00:21:04;;;;;;;6.97;5.78;;;21.90;99.90;;;;;;5067722;28;20040;-58
2023/06/10 00:23:38;;;;;;;7.60;5.55;;;21.80;99.90;;;;;;5064641;28;20028;-58
2023/06/10 00:26:04;;;;;;;;;;;21.80;99.90;;;;;;5067437;28;20044;-58
2023/06/10 00:28:29;;;;;;;8.02;5.82;;;21.80;99.90;;;;;;5067794;28;19920;-58
2023/06/10 00:30:55;;;;;;;7.65;5.97;;;21.80;99.90;;;;;;5068095;28;20219;-59
2023/06/10 00:33:21;;;;;;;7.13;5.97;;;21.70;99.90;;;;;;5054019;28;20036;-58
2023/06/10 00:35:46;;;;;;;6.65;5.72;;;21.70;99.90;;;;;;5066339;28;20036;-58
2023/06/10 00:38:13;;;;;;;7.53;6.30;;;21.50;99.90;;;;;;5066501;28;20060;-58
2023/06/10 00:40:43;;;;;;;8.95;5.93;;;21.40;99.90;;;;;;5068115;28;20033;-58
2023/06/10 00:43:09;;;;;;;7.13;5.88;;;21.20;99.90;;;;;;5065956;28;20090;-58
2023/06/10 00:45:35;;;;;;;8.50;6.15;;;21.40;99.90;;;;;;5066176;28;20036;-58
2023/06/10 00:48:01;;;;;;;9.45;6.35;;;21.50;99.90;;;;;;5047830;28;20045;-58
2023/06/10 00:50:27;;;;;;;6.85;6.13;;;21.60;99.90;;;;;;5054347;28;20140;-58
2023/06/10 00:52:54;;;;;;;7.40;6.05;;;21.60;99.90;;;;;;5048147;28;20382;-58
2023/06/10 00:55:20;;;;;;;8.25;6.07;;;21.30;99.90;;;;;;5046805;28;20075;-58
2023/06/10 00:57:48;;;;;;;7.88;6.20;;;21.20;99.90;;;;;;5064687;28;20032;-58
2023/06/10 01:00:15;;;;;;;7.18;6.00;;;21.20;99.90;;;;;;5047649;28;20113;-58
2023/06/10 01:02:41;;;;;;;7.95;6.07;;;21.30;99.90;;;;;;5068058;28;20556;-58
2023/06/10 01:05:08;;;;;;;8.60;5.90;;;21.10;99.90;;;;;;5053508;28;20037;-58
2023/06/10 01:07:56;;;;;;;10.68;5.95;;;21.00;99.90;;;;;;5066333;28;20037;-58
2023/06/10 01:10:35;;;;;;;10.32;6.03;;;20.90;99.90;;;;;;5053131;28;20468;-58
2023/06/10 01:13:08;;;;;;;8.55;6.40;;;20.90;99.90;;;;;;5067829;28;20050;-62
2023/06/10 01:15:34;;;;;;;10.57;6.47;;;20.80;99.90;;;;;;5066435;28;20063;-58
2023/06/10 01:18:08;;;;;;;7.60;6.72;;;20.70;99.90;;;;;;5056560;28;20497;-58
2023/06/10 01:20:34;;;;;;;6.78;6.00;;;20.70;99.90;;;;;;5067626;28;20555;-57
2023/06/10 01:23:02;;;;;;;8.05;6.75;;;20.70;99.90;;;;;;5068020;28;20702;-58
2023/06/10 01:25:32;;;;;;;11.20;7.22;;;20.90;99.90;;;;;;5066929;28;20392;-58
2023/06/10 01:28:25;;;;;;;9.25;7.00;;;20.80;99.90;;;;;;5053130;28;20025;-58
2023/06/10 01:31:33;;;;;;;11.10;7.30;;;20.60;99.90;;;;;;5071396;28;20044;-58
2023/06/10 01:34:01;;;;;;;8.32;7.35;;;20.50;99.90;;;;;;5056329;28;20676;-58
2023/06/10 01:36:27;;;;;;;8.18;7.05;;;20.40;99.90;;;;;;5050764;28;20749;-58
2023/06/10 01:38:55;;;;;;;8.98;6.95;;;20.30;99.90;;;;;;5057131;28;20123;-58
2023/06/10 01:41:21;;;;;;;10.70;7.25;;;20.30;99.90;;;;;;5070651;28;20551;-58
2023/06/10 01:43:47;;;;;;;8.80;7.20;;;20.40;99.90;;;;;;5064908;28;20036;-58
2023/06/10 01:46:15;;;;;;;10.02;7.20;;;20.30;99.90;;;;;;5059052;28;20045;-58
2023/06/10 01:48:42;;;;;;;12.07;7.28;;;20.20;99.90;;;;;;5063874;28;20132;-58
2023/06/10 01:51:07;;;;;;;10.50;7.20;;;20.20;99.90;;;;;;5061864;28;20052;-58
2023/06/10 01:53:33;;;;;;;10.35;7.35;;;20.10;99.90;;;;;;5055645;28;20083;-58
2023/06/10 01:55:58;;;;;;;8.40;6.93;;;20.10;99.90;;;;;;5059017;28;20047;-58
2023/06/10 01:58:24;;;;;;;8.65;7.22;;;20.10;99.90;;;;;;5063138;28;20036;-58
2023/06/10 02:00:50;;;;;;;11.20;7.22;;;20.10;99.90;;;;;;5067260;28;20055;-58
2023/06/10 02:03:15;;;;;;;9.77;7.60;;;20.10;99.90;;;;;;5065911;28;20547;-58
2023/06/10 02:05:41;;;;;;;9.85;7.88;;;20.00;99.90;;;;;;5066464;28;20402;-58
2023/06/10 02:08:06;;;;;;;9.80;7.25;;;19.80;99.90;;;;;;5065096;28;20036;-58
2023/06/10 02:10:32;;;;;;;9.23;7.47;;;19.70;99.90;;;;;;5055921;28;20032;-58
2023/06/10 02:12:58;;;;;;;9.13;7.32;;;19.50;99.90;;;;;;5065852;28;20441;-58
2023/06/10 02:15:24;;;;;;;11.07;7.90;;;19.70;99.90;;;;;;5069653;28;20049;-58
2023/06/10 02:17:50;;;;;;;8.57;7.68;;;19.40;99.90;;;;;;5058947;28;20033;-59
2023/06/10 02:20:16;;;;;;;7.93;7.15;;;19.40;99.90;;;;;;5069750;28;20495;-58
2023/06/10 02:22:41;;;;;;;9.05;7.57;;;19.30;99.90;;;;;;5070511;28;20032;-57
2023/06/10 02:25:08;;;;;;;9.55;8.25;;;19.10;99.90;;;;;;5069325;28;20391;-58
2023/06/10 02:27:33;;;;;;;9.82;7.85;;;19.00;99.90;;;;;;5066499;28;20117;-58
2023/06/10 02:29:59;;;;;;;8.60;7.70;;;19.00;99.90;;;;;;5070600;28;20064;-58
2023/06/10 02:32:25;;;;;;;9.63;8.23;;;19.00;99.90;;;;;;5068916;28;20029;-58
2023/06/10 02:34:51;;;;;;;12.85;8.43;;;18.80;99.90;;;;;;5069952;28;20040;-58
2023/06/10 02:37:17;;;;;;;9.07;8.13;;;18.70;99.90;;;;;;5069955;28;20104;-58
2023/06/10 02:39:42;;;;;;;14.70;8.07;;;18.80;99.90;;;;;;5057255;28;20104;-58
2023/06/10 02:42:08;;;;;;;9.40;8.02;;;18.60;99.90;;;;;;5064025;28;20120;-58
2023/06/10 02:44:34;;;;;;;10.38;8.30;;;17.40;99.90;;;;;;5060315;28;20060;-58
2023/06/10 02:46:59;;;;;;;9.20;8.20;;;18.70;99.90;;;;;;5066391;28;20027;-58
2023/06/10 02:49:27;;;;;;;9.85;8.23;;;18.30;99.90;;;;;;5066618;28;20033;-58
2023/06/10 02:51:53;;;;;;;13.32;8.73;;;18.70;99.90;;;;;;5069082;28;20043;-58
2023/06/10 02:54:25;;;;;;;12.68;9.10;;;18.60;99.90;;;;;;5068949;28;20111;-58
2023/06/10 02:56:52;;;;;;;12.35;8.90;;;18.40;99.90;;;;;;5069387;28;20404;-58
2023/06/10 02:59:18;;;;;;;10.85;8.98;;;18.50;99.90;;;;;;5055837;28;20451;-58
2023/06/10 03:01:43;;;;;;;9.48;8.48;;;18.40;99.90;;;;;;5057953;28;20036;-58
2023/06/10 03:04:09;;;;;;;11.13;8.75;;;18.40;99.90;;;;;;5069209;28;20485;-58
2023/06/10 03:06:35;;;;;;;10.00;9.00;;;18.40;99.90;;;;;;5069507;28;20051;-58
2023/06/10 03:09:01;;;;;;;9.50;8.50;;;18.10;99.90;;;;;;5057419;28;20029;-61
2023/06/10 03:11:27;;;;;;;10.30;8.85;;;18.20;99.90;;;;;;5063172;28;20543;-58
2023/06/10 03:13:55;;;;;;;11.32;9.55;;;18.70;99.90;;;;;;5069099;28;20056;-58
2023/06/10 03:16:21;;;;;;;9.65;8.60;;;18.20;99.90;;;;;;5061448;28;20408;-58
2023/06/10 03:18:47;;;;;;;10.95;8.75;;;18.20;99.90;;;;;;5065231;28;20061;-58
2023/06/10 03:21:12;;;;;;;10.43;8.63;;;18.00;99.90;;;;;;5068550;28;20621;-58
2023/06/10 03:23:38;;;;;;;9.55;8.65;;;18.20;99.90;;;;;;5068365;28;20037;-58
2023/06/10 03:26:04;;;;;;;12.63;9.50;;;18.10;99.90;;;;;;5068872;28;20036;-58
2023/06/10 03:28:30;;;;;;;11.85;8.93;;;18.00;99.90;;;;;;5069285;28;20036;-58
2023/06/10 03:30:56;;;;;;;11.77;9.18;;;18.00;99.90;;;;;;5064297;28;20032;-58
2023/06/10 03:33:22;;;;;;;11.82;9.15;;;18.00;99.90;;;;;;5068058;28;20039;-57
2023/06/10 03:35:48;;;;;;;13.27;9.35;;;16.70;99.90;;;;;;5068530;28;20044;-57
2023/06/10 03:38:13;;;;;;;12.38;9.32;;;17.90;99.90;;;;;;5068559;28;20554;-58
2023/06/10 03:40:39;;;;;;;10.80;9.05;;;17.80;99.90;;;;;;5066924;28;20048;-57
2023/06/10 03:43:04;;;;;;;15.52;9.98;;;17.80;99.90;;;;;;5068591;28;20036;-58
2023/06/10 03:45:30;;;;;;;11.77;9.05;;;17.70;99.90;;;;;;5063069;28;20107;-57
2023/06/10 03:47:56;;;;;;;11.43;9.23;;;17.80;99.90;;;;;;5048646;28;20033;-57
2023/06/10 03:50:23;;;;;;;11.68;9.18;;;17.80;99.90;;;;;;5055699;28;20056;-58
2023/06/10 03:52:49;;;;;;;11.35;9.30;;;17.60;99.90;;;;;;5068466;28;20036;-58
2023/06/10 03:55:16;;;;;;;10.48;9.20;;;17.70;99.90;;;;;;5067321;28;20035;-58
2023/06/10 03:57:42;;;;;;;11.00;9.20;;;17.80;99.90;;;;;;5066794;28;20020;-57
2023/06/10 04:00:12;;;;;;;10.77;9.52;;;17.80;99.90;;;;;;5048580;28;20033;-58
2023/06/10 04:02:49;;;;;;;12.57;9.75;;;17.80;99.90;;;;;;5065082;28;20044;-58
2023/06/10 04:05:17;;;;;;;14.10;9.75;;;17.70;99.90;;;;;;5066402;28;20066;-57
2023/06/10 04:07:44;;;;;;;12.45;9.57;;;17.60;99.90;;;;;;5067565;28;20073;-58
2023/06/10 04:10:12;;;;;;;10.60;9.52;;;17.70;99.90;;;;;;5068301;28;20605;-58
2023/06/10 04:12:38;;;;;;;15.18;10.10;;;17.70;99.90;;;;;;5068448;28;20028;-57
2023/06/10 04:15:05;;;;;;;13.63;10.35;;;17.70;99.90;;;;;;5067223;28;20503;-57
2023/06/10 04:17:30;;;;;;;13.38;10.43;;;17.80;99.90;;;;;;5059533;28;20422;-58
2023/06/10 04:19:56;;;;;;;17.23;10.95;;;18.00;99.90;;;;;;5052121;28;20036;-58
2023/06/10 04:22:22;;;;;;;13.05;10.23;;;18.10;99.90;;;;;;5060826;28;20135;-57
2023/06/10 04:24:51;;;;;;;11.60;10.38;;;18.00;99.90;;;;;;5047734;28;20025;-58
2023/06/10 04:27:17;;;;;;;11.27;10.07;;;18.10;99.90;;;;;;5047576;28;20043;-57
2023/06/10 04:29:42;;;;;;;12.82;10.98;;;18.20;99.90;;;;;;5060769;28;20024;-58
2023/06/10 04:32:08;;;;;;;13.95;10.70;;;18.40;99.90;;;;;;5063007;28;20127;-58
2023/06/10 04:34:34;;;;;;;13.00;11.30;;;18.60;99.90;;;;;;5067930;28;20035;-59
2023/06/10 04:37:00;;;;;;;13.98;11.38;;;18.70;99.90;;;;;;5066575;28;20114;-58
2023/06/10 04:39:25;;;;;;;15.32;11.27;;;18.90;99.90;;;;;;5063931;28;20514;-58
2023/06/10 04:41:51;;;;;;;15.43;10.85;;;18.90;99.90;;;;;;5065825;28;20040;-58
2023/06/10 04:44:17;;;;;;;15.90;11.48;;;18.90;99.90;;;;;;5061504;28;20037;-58
2023/06/10 04:46:42;;;;;;;16.73;11.77;;;18.90;99.90;;;;;;5061173;28;20039;-58
2023/06/10 04:49:08;;;;;;;14.82;11.93;;;19.00;99.90;;;;;;5067401;28;20039;-58
2023/06/10 04:51:34;;;;;;;15.88;11.80;;;19.10;99.90;;;;;;5066172;28;20025;-57
2023/06/10 04:54:03;;;;;;;15.38;11.25;;;19.00;99.90;;;;;;5067370;28;20416;-57
2023/06/10 04:56:30;;;;;;;13.35;11.73;;;19.10;99.90;;;;;;5066685;28;20106;-57
2023/06/10 04:58:59;;;;;;;14.68;11.45;;;19.20;99.90;;;;;;5056491;28;20021;-57
2023/06/10 05:01:24;;;;;;;14.07;11.88;;;19.30;99.90;;;;;;5055989;28;20533;-57
2023/06/10 05:03:50;;;;;;;12.82;11.45;;;19.40;99.90;;;;;;5072771;28;20158;-57
2023/06/10 05:06:16;;;;;;;22.02;11.50;;;19.40;99.90;;;;;;5073457;28;20032;-58
2023/06/10 05:08:41;;;;;;;15.32;11.80;;;19.60;99.90;;;;;;5064813;28;20119;-57
2023/06/10 05:11:07;;;;;;;15.93;11.90;;;19.60;99.90;;;;;;5066780;28;20045;-58
2023/06/10 05:13:33;;;;;;;16.30;11.75;;;19.60;99.90;;;;;;5073160;28;20454;-58
2023/06/10 05:15:58;;;;;;;14.60;11.98;;;19.60;99.90;;;;;;5070651;28;20370;-57
2023/06/10 05:18:24;;;;;;;16.77;12.02;;;19.60;99.90;;;;;;5066333;28;20039;-57
2023/06/10 05:20:50;;;;;;;20.83;12.68;;;19.60;99.90;;;;;;5074271;28;20045;-57
2023/06/10 05:23:15;;;;;;;15.18;12.77;;;19.80;99.90;;;;;;5069552;28;20032;-57
2023/06/10 05:25:42;;;;;;;14.80;12.40;;;19.80;99.90;;;;;;5068858;28;20032;-57
2023/06/10 05:28:09;;;;;;;17.30;11.80;;;19.90;99.90;;;;;;5070934;28;20496;-57
2023/06/10 05:30:36;;;;;;;14.88;12.02;;;20.10;99.90;;;;;;5071621;28;20613;-57
2023/06/10 05:33:02;;;;;;;17.35;12.70;;;20.00;99.90;;;;;;5065618;28;20036;-59
2023/06/10 05:35:28;;;;;;;17.63;12.00;;;20.00;99.90;;;;;;5064834;28;20388;-58
2023/06/10 05:37:53;;;;;;;14.75;11.07;;;20.10;99.90;;;;;;5071035;28;20027;-58
2023/06/10 05:40:19;;;;;;;14.65;11.80;;;20.30;99.90;;;;;;5070158;28;20089;-57
2023/06/10 05:42:45;;;;;;;14.80;11.95;;;20.40;99.90;;;;;;5070654;28;20189;-57
2023/06/10 05:45:10;;;;;;;13.45;11.57;;;20.30;99.90;;;;;;5069024;28;20037;-57
2023/06/10 05:47:36;;;;;;;17.75;12.27;;;20.20;99.90;;;;;;5068476;28;20025;-58
2023/06/10 05:50:02;;;;;;;20.25;12.52;;;20.40;99.90;;;;;;5070912;28;20107;-57
2023/06/10 05:52:28;;;;;;;18.63;12.18;;;20.30;99.90;;;;;;5071282;28;20344;-57
2023/06/10 05:54:54;;;;;;;16.52;12.15;;;20.40;99.90;;;;;;5071189;28;20047;-57
2023/06/10 05:57:19;;;;;;;14.07;11.68;;;20.30;99.90;;;;;;5066064;28;20056;-57
2023/06/10 05:59:45;;;;;;;18.20;11.88;;;20.40;99.90;;;;;;5071227;28;20056;-57
2023/06/10 06:02:11;;;;;;;14.95;11.93;;;20.50;99.90;;;;;;5066017;28;20070;-57
2023/06/10 06:04:36;;;;;;;17.52;11.88;;;20.50;99.90;;;;;;5071224;28;20048;-57
2023/06/10 06:07:02;;;;;;;15.55;11.73;;;20.70;99.90;;;;;;5072373;28;20020;-58
2023/06/10 06:09:28;;;;;;;13.63;10.40;;;20.70;99.90;;;;;;5073075;28;20054;-57
2023/06/10 06:11:54;;;;;;;14.85;11.52;;;20.80;99.90;;;;;;5073802;28;20054;-57
2023/06/10 06:14:19;;;;;;;15.80;10.85;;;20.80;99.90;;;;;;5071694;28;20028;-58
2023/06/10 06:16:45;;;;;;;15.80;10.63;;;20.80;99.90;;;;;;5069649;28;20047;-57
2023/06/10 06:19:12;;;;;;;13.73;10.35;;;;;;;;;;5063824;28;20036;-58
2023/06/10 06:21:38;;;;;;;14.55;10.45;;;21.00;99.90;;;;;;5070749;28;20029;-57
2023/06/10 06:24:04;;;;;;;14.45;10.40;;;21.30;99.90;;;;;;5069911;28;20070;-57
2023/06/10 06:26:29;;;;;;;14.25;10.35;;;21.30;99.90;;;;;;5070353;28;20024;-57
2023/06/10 06:28:55;;;;;;;18.73;10.82;;;21.20;99.90;;;;;;5070373;28;20032;-57
2023/06/10 06:31:20;;;;;;;14.93;8.95;;;21.20;99.90;;;;;;5066085;28;20064;-57
2023/06/10 06:33:46;;;;;;;12.50;8.95;;;21.40;99.90;;;;;;5066031;28;20028;-57
2023/06/10 06:36:11;;;;;;;14.80;9.73;;;21.60;99.90;;;;;;5069990;28;20093;-57
2023/06/10 06:38:37;;;;;;;14.02;9.65;;;21.60;99.90;;;;;;5070346;28;20032;-58
2023/06/10 06:41:05;;;;;;;12.38;9.43;;;21.80;99.90;;;;;;5061421;28;20112;-57
2023/06/10 06:43:31;;;;;;;12.32;8.70;;;21.80;99.90;;;;;;5069292;28;20036;-57
2023/06/10 06:45:57;;;;;;;16.15;8.40;;;21.90;99.90;;;;;;5062481;28;20105;-59
2023/06/10 06:48:23;;;;;;;11.25;9.10;;;22.10;99.90;;;;;;5049879;28;20054;-57
2023/06/10 06:50:49;;;;;;;13.40;8.75;;;21.90;99.90;;;;;;5060964;28;20029;-57
2023/06/10 06:53:14;;;;;;;12.50;8.68;;;22.00;99.90;;;;;;5065763;28;20057;-57
2023/06/10 06:55:40;;;;;;;13.05;8.65;;;22.10;99.90;;;;;;5069726;28;20036;-57
2023/06/10 06:58:06;;;;;;;11.38;8.68;;;22.10;99.90;;;;;;5064761;28;20443;-57
2023/06/10 07:00:32;;;;;;;14.65;8.50;;;22.00;99.90;;;;;;5053412;28;20052;-57
2023/06/10 07:02:58;;;;;;;12.45;8.25;;;22.10;99.90;;;;;;5062704;28;20037;-57
2023/06/10 07:05:27;;;;;;;9.65;7.65;;;22.20;99.90;;;;;;5064931;28;20033;-57
2023/06/10 07:07:54;;;;;;;8.80;7.72;;;22.20;99.90;;;;;;5066739;28;20123;-58
2023/06/10 07:10:21;;;;;;;13.45;8.10;;;22.20;99.90;;;;;;5055361;28;20033;-58
2023/06/10 07:12:47;;;;;;;14.50;7.93;;;22.50;99.90;;;;;;5069963;28;20133;-58
2023/06/10 07:15:13;;;;;;;10.73;8.27;;;22.80;99.90;;;;;;5065089;28;20037;-57
2023/06/10 07:17:39;;;;;;;13.20;7.57;;;22.60;99.90;;;;;;5058085;28;20040;-57
2023/06/10 07:20:05;;;;;;;14.88;8.05;;;22.50;99.90;;;;;;5068985;28;20028;-57
2023/06/10 07:22:30;;;;;;;10.68;7.78;;;22.80;99.90;;;;;;5069381;28;20036;-57
2023/06/10 07:24:57;;;;;;;10.35;7.07;;;22.80;99.90;;;;;;5061541;28;20021;-57
2023/06/10 07:27:22;;;;;;;11.10;7.40;;;22.80;99.90;;;;;;5064499;28;20075;-57
2023/06/10 07:29:48;;;;;;;13.07;7.70;;;22.70;99.90;;;;;;5069320;28;20575;-57
2023/06/10 07:32:14;;;;;;;9.00;7.03;;;22.70;99.90;;;;;;5068146;28;20404;-57
2023/06/10 07:34:39;;;;;;;14.20;8.13;;;23.00;99.90;;;;;;5069008;28;20085;-57
2023/06/10 07:37:05;;;;;;;11.25;7.28;;;22.80;99.90;;;;;;5064869;28;20202;-58
2023/06/10 07:39:31;;;;;;;10.60;6.95;;;22.70;99.90;;;;;;5068571;28;20742;-57
2023/06/10 07:41:57;;;;;;;13.32;7.30;;;22.80;99.90;;;;;;5067405;28;20064;-67
2023/06/10 07:44:23;;;;;;;8.82;6.53;;;23.00;99.90;;;;;;5059154;28;20033;-67
2023/06/10 07:46:48;;;;;;;10.55;6.97;;;23.30;99.90;;;;;;5058463;28;20039;-67
2023/06/10 07:49:14;;;;;;;10.18;6.68;;;23.30;99.90;;;;;;5064671;28;20033;-65
2023/06/10 07:51:40;;;;;;;10.55;6.75;;;23.40;99.90;;;;;;5053009;28;20043;-66
2023/06/10 07:54:06;;;;;;;11.32;6.85;;;23.60;99.90;;;;;;5049833;28;20087;-65
2023/06/10 07:56:31;;;;;;;11.77;6.30;;;23.40;99.90;;;;;;5065236;28;20044;-66
2023/06/10 07:58:57;;;;;;;9.00;6.35;;;23.60;99.90;;;;;;5061862;28;20699;-67
2023/06/10 08:01:24;;;;;;;11.00;6.75;;;23.90;99.90;;;;;;5065424;28;20048;-68
2023/06/10 08:03:49;;;;;;;12.02;6.90;;;23.80;99.90;;;;;;5061418;28;20111;-67
2023/06/10 08:06:17;;;;;;;8.77;6.00;;;23.90;99.90;;;;;;5064828;28;20319;-66
2023/06/10 08:08:43;;;;;;;9.98;6.28;;;23.90;99.90;;;;;;5064101;28;20503;-66
2023/06/10 08:11:13;;;;;;;20.92;6.57;;;23.90;99.90;;;;;;5070854;28;20056;-68
2023/06/10 08:13:39;;;;;;;34.97;8.07;;;24.20;99.90;;;;;;5065612;28;20067;-66
2023/06/10 08:16:05;;;;;;;11.63;6.38;;;24.20;99.90;;;;;;5058813;28;20033;-66
2023/06/10 08:18:31;;;;;;;9.35;6.28;;;24.10;99.90;;;;;;5059444;28;20123;-66
2023/06/10 08:20:56;;;;;;;9.45;6.10;;;24.20;99.90;;;;;;5061364;28;20480;-67
2023/06/10 08:23:22;;;;;;;7.40;6.15;;;24.20;99.90;;;;;;5064342;28;20040;-66
2023/06/10 08:25:48;;;;;;;10.75;5.97;;;24.30;99.90;;;;;;5065170;28;20090;-66
2023/06/10 08:28:13;;;;;;;19.85;7.03;;;24.50;99.90;;;;;;5065565;28;20047;-66
2023/06/10 08:30:39;;;;;;;8.60;6.63;;;24.70;99.90;;;;;;5061044;28;20120;-66
2023/06/10 08:33:05;;;;;;;11.32;6.35;;;24.70;99.90;;;;;;5057136;28;20036;-66
2023/06/10 08:35:30;;;;;;;13.98;6.82;;;24.60;99.90;;;;;;5064731;28;20079;-67
2023/06/10 08:37:56;;;;;;;15.32;6.45;;;24.80;99.90;;;;;;5064247;28;20448;-67
2023/06/10 08:40:21;;;;;;;10.98;6.53;;;25.00;99.90;;;;;;5065000;28;20048;-66
2023/06/10 08:43:05;;;;;;;11.73;6.60;;;25.00;99.90;;;;;;5063655;28;20047;-66
2023/06/10 08:45:32;;;;;;;13.48;6.35;;;24.80;99.90;;;;;;5051851;28;20033;-67
2023/06/10 08:47:58;;;;;;;13.00;6.32;;;24.80;99.90;;;;;;5057225;28;20837;-66
2023/06/10 08:50:26;;;;;;;10.90;6.80;;;24.90;99.90;;;;;;5064516;28;20037;-66
2023/06/10 08:52:57;;;;;;;7.88;6.03;;;25.20;99.90;;;;;;5058467;28;20487;-66
2023/06/10 08:55:31;;;;;;;13.27;6.97;;;25.40;99.90;;;;;;5059864;28;20120;-66
2023/06/10 08:58:01;;;;;;;10.52;6.57;;;25.30;99.90;;;;;;5061428;28;20374;-66
2023/06/10 09:00:28;;;;;;;10.70;6.03;;;25.30;99.90;;;;;;5047019;28;20480;-66
2023/06/10 09:02:54;;;;;;;11.50;6.43;;;25.30;99.90;;;;;;5064419;28;20040;-66
2023/06/10 09:05:21;;;;;;;10.85;6.47;;;25.20;99.90;;;;;;5063810;28;20076;-66
2023/06/10 09:07:48;;;;;;;8.88;6.38;;;25.30;99.90;;;;;;5062999;28;20384;-66
2023/06/10 09:10:14;;;;;;;9.85;6.18;;;25.30;99.90;;;;;;5055780;28;20060;-66
2023/06/10 09:12:40;;;;;;;10.20;6.28;;;25.60;99.90;;;;;;5064576;28;20047;-67
2023/06/10 09:15:07;;;;;;;12.05;6.28;;;25.60;99.90;;;;;;5055712;28;20040;-65
2023/06/10 09:17:33;;;;;;;14.95;6.65;;;27.10;99.90;;;;;;5053582;28;20496;-66
2023/06/10 09:20:00;;;;;;;10.32;6.50;;;26.00;99.90;;;;;;5064887;28;20032;-66
2023/06/10 09:22:26;;;;;;;11.23;5.80;;;25.90;99.90;;;;;;5064481;28;20130;-66
2023/06/10 09:25:03;;;;;;;9.30;6.10;;;26.10;99.90;;;;;;5064403;28;20051;-65
2023/06/10 09:27:31;;;;;;;8.57;6.00;;;26.30;99.90;;;;;;5063656;28;20025;-65
2023/06/10 09:29:58;;;;;;;9.63;6.00;;;26.20;99.90;;;;;;5064732;28;20029;-67
2023/06/10 09:32:24;;;;;;;12.82;6.43;;;26.20;99.90;;;;;;5060148;28;20041;-67
2023/06/10 09:34:50;;;;;;;7.07;6.03;;;26.30;99.90;;;;;;5055028;28;20558;-67
2023/06/10 09:37:25;;;;;;;7.68;5.65;;;26.50;99.90;;;;;;5056116;28;20044;-66
2023/06/10 09:40:02;;;;;;;8.80;5.90;;;26.70;99.90;;;;;;5064367;28;20029;-67
2023/06/10 09:42:33;;;;;;;9.20;6.00;;;26.50;99.90;;;;;;5062797;28;20078;-66
2023/06/10 09:44:59;;;;;;;8.70;5.63;;;26.50;99.90;;;;;;5056531;28;20033;-66
2023/06/10 09:47:25;;;;;;;11.48;6.38;;;26.80;99.90;;;;;;5056931;28;20063;-66
2023/06/10 09:49:53;;;;;;;8.35;6.07;;;26.90;99.90;;;;;;5065113;28;20040;-66
2023/06/10 09:52:26;;;;;;;10.50;6.40;;;26.90;99.90;;;;;;5065766;28;20417;-66
2023/06/10 09:54:52;;;;;;;;;;;26.70;99.90;;;;;;5067880;28;20882;-66
2023/06/10 09:57:19;;;;;;;8.77;5.82;;;26.90;99.90;;;;;;5067682;28;20030;-65
2023/06/10 09:59:45;;;;;;;12.70;6.28;;;27.10;99.90;;;;;;5051389;28;20464;-66
2023/06/10 10:02:19;;;;;;;7.72;5.65;;;27.30;99.90;;;;;;5062653;28;20044;-65
2023/06/10 10:04:44;;;;;;;12.38;5.90;;;27.10;99.30;;;;;;5057638;28;20645;-66
2023/06/10 10:07:11;;;;;;;7.88;5.88;;;27.20;97.40;;;;;;5067472;28;20040;-67
2023/06/10 10:09:38;;;;;;;8.10;6.07;;;27.20;98.60;;;;;;5056369;28;20189;-65
2023/06/10 10:12:15;;;;;;;16.23;6.75;;;27.20;99.70;;;;;;5066833;28;20097;-65
2023/06/10 10:14:47;;;;;;;13.25;5.95;;;27.20;96.50;;;;;;5065496;28;20033;-66
2023/06/10 10:17:14;;;;;;;10.23;6.07;;;27.30;95.30;;;;;;5056394;28;20099;-65
2023/06/10 10:19:47;;;;;;;11.18;6.40;;;27.40;96.00;;;;;;5067484;28;20373;-67
2023/06/10 10:22:31;;;;;;;12.38;6.10;;;27.40;95.20;;;;;;5066583;28;20043;-65
2023/06/10 10:25:01;;;;;;;9.48;5.80;;;27.50;97.80;;;;;;5059175;28;20056;-67
2023/06/10 10:27:31;;;;;;;9.60;6.10;;;27.60;93.40;;;;;;5067342;28;20063;-66
2023/06/10 10:29:58;;;;;;;10.52;5.82;;;27.50;95.70;;;;;;5067567;28;20021;-65
2023/06/10 10:32:38;;;;;;;9.48;5.72;;;27.70;95.80;;;;;;5062509;28;20547;-65
2023/06/10 10:35:22;;;;;;;9.20;6.22;;;27.80;97.50;;;;;;5066679;28;20028;-65
2023/06/10 10:37:49;;;;;;;7.78;6.15;;;27.80;91.10;;;;;;5067340;28;20097;-66
2023/06/10 10:40:15;;;;;;;8.82;5.60;;;27.80;91.70;;;;;;5067076;28;20028;-66
2023/06/10 10:42:42;;;;;;;7.85;5.82;;;27.80;91.30;;;;;;5066577;28;20510;-66
2023/06/10 10:45:09;;;;;;;10.82;5.88;;;27.70;87.50;;;;;;5065636;28;20094;-65
2023/06/10 10:47:38;;;;;;;7.03;5.50;;;27.70;87.40;;;;;;5061371;28;20387;-66
2023/06/10 10:50:17;;;;;;;10.68;6.10;;;27.80;90.00;;;;;;5047294;28;20108;-67
2023/06/10 10:52:55;;;;;;;9.93;5.68;;;28.00;88.60;;;;;;5059693;28;20083;-66
2023/06/10 10:55:22;;;;;;;13.55;5.97;;;27.90;87.20;;;;;;5062630;28;21425;-65
2023/06/10 10:57:55;;;;;;;10.00;5.88;;;28.00;88.60;;;;;;5065009;28;20111;-66
2023/06/10 11:00:33;;;;;;;8.02;5.60;;;27.80;84.40;;;;;;5056160;28;20063;-65
2023/06/10 11:03:13;;;;;;;11.40;5.60;;;28.00;87.40;;;;;;5066521;28;20109;-66
2023/06/10 11:05:48;;;;;;;9.85;5.60;;;28.10;85.80;;;;;;5065597;28;20032;-66
2023/06/10 11:08:34;;;;;;;10.00;5.78;;;28.10;86.70;;;;;;5060930;28;20481;-65
2023/06/10 11:11:01;;;;;;;6.93;5.70;;;28.20;83.70;;;;;;5053551;28;20035;-66
2023/06/10 11:13:27;;;;;;;7.90;5.70;;;28.20;75.10;;;;;;5066237;28;20036;-66
2023/06/10 11:15:57;;;;;;;7.80;5.25;;;28.20;80.40;;;;;;5065446;28;20037;-66
2023/06/10 11:18:28;;;;;;;7.93;5.88;;;28.30;79.50;;;;;;5058546;28;20036;-66
2023/06/10 11:20:56;;;;;;;9.23;5.60;;;28.30;74.00;;;;;;5065779;28;20040;-66
2023/06/10 11:23:27;;;;;;;9.77;5.10;;;28.30;73.60;;;;;;5050542;28;20036;-65
2023/06/10 11:26:20;;;;;;;11.93;5.90;;;28.20;74.80;;;;;;5046267;28;20412;-66
2023/06/10 11:28:46;;;;;;;10.10;5.90;;;28.30;74.20;;;;;;5056365;28;20056;-66
2023/06/10 11:31:25;;;;;;;9.18;5.85;;;28.30;68.40;;;;;;5065816;28;20148;-66
2023/06/10 11:33:57;;;;;;;8.13;5.60;;;28.20;69.70;;;;;;5059098;28;20028;-66
2023/06/10 11:36:23;;;;;;;9.13;5.82;;;28.30;72.30;;;;;;5045422;28;20513;-66
2023/06/10 11:38:52;;;;;;;9.95;5.95;;;28.40;72.90;;;;;;5056518;28;20039;-66
2023/06/10 11:41:18;;;;;;;10.90;5.65;;;28.30;68.30;;;;;;5064275;28;20032;-66
2023/06/10 11:43:44;;;;;;;8.15;5.72;;;28.40;71.50;;;;;;5060476;28;20403;-66
2023/06/10 11:46:14;;;;;;;10.07;5.88;;;28.30;73.00;;;;;;5062187;28;20040;-65
2023/06/10 11:49:00;;;;;;;10.55;6.05;;;28.30;70.10;;;;;;5064349;28;20036;-65
2023/06/10 11:51:27;;;;;;;7.28;5.80;;;28.40;69.30;;;;;;5054167;28;20033;-66
2023/06/10 11:53:54;;;;;;;9.80;5.60;;;28.50;70.00;;;;;;5045749;28;20124;-65
2023/06/10 11:56:25;;;;;;;6.90;5.65;;;28.50;69.70;;;;;;5045121;28;20029;-65
2023/06/10 11:59:05;;;;;;;9.32;5.63;;;28.40;61.70;;;;;;5065786;28;20131;-66
2023/06/10 12:01:32;;;;;;;7.40;5.93;;;28.50;68.90;;;;;;5061583;28;20507;-66
2023/06/10 12:04:03;;;;;;;6.80;5.40;;;28.60;66.40;;;;;;5061587;28;20035;-67
2023/06/10 12:06:58;;;;;;;10.55;5.40;;;28.50;64.40;;;;;;5064585;28;20562;-65
2023/06/10 12:09:29;;;;;;;7.60;5.35;;;28.60;62.80;;;;;;5040453;28;20029;-66
2023/06/10 12:12:03;;;;;;;6.65;5.50;;;28.70;62.60;;;;;;5057330;28;20035;-67
2023/06/10 12:14:57;;;;;;;7.55;5.63;;;28.50;63.90;;;;;;5065257;28;20036;-66
2023/06/10 12:17:36;;;;;;;9.57;5.50;;;28.50;61.10;;;;;;5053632;28;20040;-65
2023/06/10 12:20:07;;;;;;;9.57;5.53;;;28.60;60.50;;;;;;5048930;28;20043;-63
2023/06/10 12:22:43;;;;;;;11.90;5.75;;;28.50;63.80;;;;;;5056781;28;20036;-65
2023/06/10 12:25:10;;;;;;;9.93;5.50;;;28.60;62.90;;;;;;5064534;28;20098;-67
2023/06/10 12:27:36;;;;;;;6.70;5.70;;;28.50;63.80;;;;;;5065483;28;20056;-66
2023/06/10 12:30:04;;;;;;;9.23;5.75;;;28.60;63.40;;;;;;5065065;28;20139;-65
2023/06/10 12:32:41;;;;;;;6.85;5.82;;;28.70;61.40;;;;;;5059414;28;20044;-67
2023/06/10 12:35:07;;;;;;;9.85;5.82;;;28.60;63.40;;;;;;5064375;28;20040;-65
2023/06/10 12:37:36;;;;;;;7.43;5.55;;;28.60;61.40;;;;;;5064787;28;20628;-68
2023/06/10 12:40:03;;;;;;;11.05;6.00;;;28.70;63.20;;;;;;5064486;28;20056;-66
2023/06/10 12:42:31;;;;;;;7.00;5.50;;;28.60;61.90;;;;;;5064833;28;20115;-65
2023/06/10 12:45:00;;;;;;;8.05;5.55;;;28.60;61.20;;;;;;5064902;28;20065;-65